createdAt,value
2017-12-27T00:00:50.937Z,98784.47
2017-12-27T00:03:23.944Z,98780.36
2017-12-27T00:05:56.783Z,98771.43
2017-12-27T00:08:29.717Z,98762.86
2017-12-27T00:11:02.620Z,98764.22
2017-12-27T00:13:35.536Z,98762.79
2017-12-27T00:16:08.633Z,98766.89
2017-12-27T00:18:41.555Z,98757.95
2017-12-27T00:21:14.504Z,98764.40
2017-12-27T00:23:47.452Z,98759.52
2017-12-27T00:26:20.347Z,98754.91
2017-12-27T00:28:53.250Z,98759.31
2017-12-27T00:31:21.792Z,98750.52
2017-12-27T00:33:49.395Z,98742.84
2017-12-27T00:36:16.819Z,98743.50
2017-12-27T00:38:44.480Z,98739.84
2017-12-27T00:41:11.942Z,98734.75
2017-12-27T00:43:39.365Z,98734.27
2017-12-27T00:46:06.811Z,98738.92
2017-12-27T00:48:34.226Z,98734.43
2017-12-27T00:51:01.689Z,98735.13
2017-12-27T00:53:29.107Z,98738.78
2017-12-27T00:55:56.583Z,98742.34
2017-12-27T00:58:24.016Z,98731.86
2017-12-27T01:00:51.464Z,98734.76
2017-12-27T01:03:18.938Z,98737.50
2017-12-27T01:05:46.360Z,98732.53
2017-12-27T01:08:13.846Z,98731.46
2017-12-27T01:10:41.268Z,98727.41
2017-12-27T01:13:08.736Z,98722.91
2017-12-27T01:15:37.051Z,98723.85
2017-12-27T01:18:04.459Z,98718.80
2017-12-27T01:20:31.914Z,98708.04
2017-12-27T01:22:59.985Z,98709.29
2017-12-27T01:25:27.421Z,98709.61
2017-12-27T01:27:54.860Z,98708.59
2017-12-27T01:30:23.237Z,98700.51
2017-12-27T01:32:50.654Z,98693.41
2017-12-27T01:35:18.067Z,98701.45
2017-12-27T01:37:45.535Z,98692.13
2017-12-27T01:40:12.963Z,98687.23
2017-12-27T01:42:40.374Z,98690.05
2017-12-27T01:45:07.841Z,98682.55
2017-12-27T01:47:35.305Z,98667.99
2017-12-27T01:50:02.772Z,98663.70
2017-12-27T01:52:30.233Z,98667.59
2017-12-27T01:54:58.348Z,98661.15
2017-12-27T01:57:25.774Z,98655.00
2017-12-27T01:59:53.215Z,98646.70
2017-12-27T02:02:20.649Z,98641.29
2017-12-27T02:04:48.092Z,98634.16
2017-12-27T02:07:16.465Z,98623.63
2017-12-27T02:09:43.916Z,98628.60
2017-12-27T02:12:11.840Z,98617.62
2017-12-27T02:14:39.279Z,98612.80
2017-12-27T02:17:06.731Z,98603.19
2017-12-27T02:19:35.264Z,98601.06
2017-12-27T02:22:02.792Z,98595.54
2017-12-27T02:24:30.216Z,98595.14
2017-12-27T02:26:57.689Z,98586.47
2017-12-27T02:29:25.136Z,98578.50
2017-12-27T02:31:52.556Z,98575.48
2017-12-27T02:34:19.988Z,98569.58
2017-12-27T02:36:47.406Z,98563.44
2017-12-27T02:39:21.569Z,98568.30
2017-12-27T02:41:49.052Z,98555.06
2017-12-27T02:44:16.472Z,98558.06
2017-12-27T02:46:43.896Z,98557.19
2017-12-27T02:49:11.310Z,98550.32
2017-12-27T02:51:38.737Z,98542.42
2017-12-27T02:54:06.158Z,98543.34
2017-12-27T02:56:33.856Z,98534.81
2017-12-27T02:59:01.301Z,98528.81
2017-12-27T03:01:28.720Z,98525.84
2017-12-27T03:03:56.168Z,98523.23
2017-12-27T03:06:23.640Z,98518.05
2017-12-27T03:08:51.139Z,98513.66
2017-12-27T03:11:18.597Z,98511.17
2017-12-27T03:13:47.012Z,98508.58
2017-12-27T03:16:14.436Z,98496.48
2017-12-27T03:18:41.850Z,98496.98
2017-12-27T03:21:10.451Z,98490.48
2017-12-27T03:23:37.911Z,98486.14
2017-12-27T03:26:05.895Z,98477.47
2017-12-27T03:28:33.330Z,98457.12
2017-12-27T03:31:00.793Z,98465.41
2017-12-27T03:33:29.274Z,98463.33
2017-12-27T03:35:56.716Z,98459.61
2017-12-27T03:38:24.199Z,98445.02
2017-12-27T03:40:51.662Z,98441.77
2017-12-27T03:43:24.024Z,98437.42
2017-12-27T03:45:51.514Z,98430.33
2017-12-27T03:48:18.955Z,98423.14
2017-12-27T03:50:46.384Z,98420.77
2017-12-27T03:53:13.817Z,98410.23
2017-12-27T03:55:41.289Z,98410.89
2017-12-27T03:58:08.734Z,98403.91
2017-12-27T04:00:36.166Z,98389.08
2017-12-27T04:03:03.629Z,98380.45
2017-12-27T04:05:31.128Z,98368.61
2017-12-27T04:07:59.514Z,98367.41
2017-12-27T04:10:26.950Z,98358.05
2017-12-27T04:12:54.381Z,98346.30
2017-12-27T04:15:21.795Z,98341.70
2017-12-27T04:17:49.260Z,98336.14
2017-12-27T04:20:16.689Z,98333.19
2017-12-27T04:22:44.396Z,98328.10
2017-12-27T04:25:11.860Z,98326.27
2017-12-27T04:27:39.978Z,98326.38
2017-12-27T04:30:07.536Z,98320.31
2017-12-27T04:32:34.976Z,98319.45
2017-12-27T04:35:02.399Z,98316.46
2017-12-27T04:37:29.806Z,98317.02
2017-12-27T04:39:57.287Z,98302.44
2017-12-27T04:42:24.720Z,98304.97
2017-12-27T04:44:52.179Z,98295.91
2017-12-27T04:47:19.632Z,98283.91
2017-12-27T04:49:47.072Z,98281.88
2017-12-27T04:52:15.340Z,98271.35
2017-12-27T04:54:42.797Z,98274.30
2017-12-27T04:57:10.255Z,98270.41
2017-12-27T04:59:37.704Z,98267.67
2017-12-27T05:02:05.122Z,98267.16
2017-12-27T05:04:32.624Z,98263.83
2017-12-27T05:07:00.050Z,98255.87
2017-12-27T05:09:27.495Z,98253.95
2017-12-27T05:11:54.912Z,98241.76
2017-12-27T05:14:22.399Z,98243.52
2017-12-27T05:16:49.831Z,98231.03
2017-12-27T05:19:17.265Z,98235.53
2017-12-27T05:21:44.676Z,98229.40
2017-12-27T05:24:12.468Z,98223.13
2017-12-27T05:26:39.964Z,98228.75
2017-12-27T05:29:07.403Z,98223.54
2017-12-27T05:31:34.863Z,98223.84
2017-12-27T05:34:02.318Z,98217.26
2017-12-27T05:36:29.780Z,98217.41
2017-12-27T05:38:57.218Z,98221.97
2017-12-27T05:41:24.650Z,98208.66
2017-12-27T05:43:52.079Z,98202.23
2017-12-27T05:46:19.555Z,98199.25
2017-12-27T05:48:47.039Z,98197.43
2017-12-27T05:51:14.488Z,98193.73
2017-12-27T05:53:42.288Z,98183.06
2017-12-27T05:56:09.716Z,98183.31
2017-12-27T05:58:37.204Z,98181.84
2017-12-27T06:01:04.956Z,98177.66
2017-12-27T06:03:32.425Z,98169.66
2017-12-27T06:05:59.864Z,98157.83
2017-12-27T06:08:27.308Z,98163.89
2017-12-27T06:10:54.779Z,98164.45
2017-12-27T06:13:22.253Z,98158.73
2017-12-27T06:15:49.744Z,98147.66
2017-12-27T06:18:17.187Z,98144.31
2017-12-27T06:20:44.621Z,98140.61
2017-12-27T06:23:12.108Z,98131.78
2017-12-27T06:25:39.638Z,98123.02
2017-12-27T06:28:07.054Z,98124.98
2017-12-27T06:30:34.478Z,98113.32
2017-12-27T06:33:01.953Z,98106.90
2017-12-27T06:35:29.367Z,98105.48
2017-12-27T06:37:56.995Z,98102.09
2017-12-27T06:40:24.527Z,98097.75
2017-12-27T06:42:51.965Z,98094.59
2017-12-27T06:45:19.412Z,98090.36
2017-12-27T06:47:46.884Z,98082.06
2017-12-27T06:50:14.318Z,98078.58
2017-12-27T06:52:41.765Z,98076.86
2017-12-27T06:55:09.362Z,98068.61
2017-12-27T06:57:36.841Z,98065.87
2017-12-27T07:00:04.299Z,98064.41
2017-12-27T07:02:31.717Z,98058.14
2017-12-27T07:04:59.237Z,98050.52
2017-12-27T07:07:26.688Z,98051.84
2017-12-27T07:09:54.368Z,98045.36
2017-12-27T07:12:21.799Z,98054.05
2017-12-27T07:14:49.212Z,98043.33
2017-12-27T07:17:16.667Z,98033.17
2017-12-27T07:19:44.097Z,98033.01
2017-12-27T07:22:11.522Z,98020.53
2017-12-27T07:24:38.980Z,98023.31
2017-12-27T07:27:06.442Z,98027.01
2017-12-27T07:29:33.914Z,98020.68
2017-12-27T07:32:01.366Z,98019.52
2017-12-27T07:34:28.829Z,98018.05
2017-12-27T07:36:56.292Z,98013.05
2017-12-27T07:39:24.646Z,98013.81
2017-12-27T07:41:52.079Z,98020.37
2017-12-27T07:44:24.586Z,98015.92
2017-12-27T07:46:52.058Z,98009.05
2017-12-27T07:49:19.507Z,98010.66
2017-12-27T07:51:46.962Z,98010.60
2017-12-27T07:54:14.429Z,98003.48
2017-12-27T07:56:41.893Z,97990.69
2017-12-27T07:59:09.379Z,97982.10
2017-12-27T08:01:36.817Z,97984.62
2017-12-27T08:04:04.270Z,97986.18
2017-12-27T08:06:31.761Z,97974.74
2017-12-27T08:08:59.268Z,97961.05
2017-12-27T08:11:26.714Z,97956.03
2017-12-27T08:13:54.164Z,97958.81
2017-12-27T08:16:21.607Z,97946.16
2017-12-27T08:18:49.091Z,97940.84
2017-12-27T08:21:16.534Z,97945.03
2017-12-27T08:23:44.039Z,97941.58
2017-12-27T08:26:11.484Z,97947.08
2017-12-27T08:28:38.949Z,97939.22
2017-12-27T08:31:06.427Z,97938.64
2017-12-27T08:33:34.162Z,97932.92
2017-12-27T08:36:01.610Z,97936.25
2017-12-27T08:38:29.091Z,97929.16
2017-12-27T08:40:56.524Z,97927.78
2017-12-27T08:43:24.000Z,97925.91
2017-12-27T08:45:51.536Z,97927.87
2017-12-27T08:48:18.997Z,97921.75
2017-12-27T08:50:46.708Z,97912.48
2017-12-27T08:53:14.228Z,97904.67
2017-12-27T08:55:41.675Z,97899.28
2017-12-27T08:58:09.162Z,97893.34
2017-12-27T09:00:36.669Z,97888.77
2017-12-27T09:03:04.129Z,97890.94
2017-12-27T09:05:31.729Z,97892.75
2017-12-27T09:07:59.245Z,97887.72
2017-12-27T09:10:26.849Z,97884.88
2017-12-27T09:12:54.336Z,97879.61
2017-12-27T09:15:21.829Z,97872.21
2017-12-27T09:17:49.288Z,97865.56
2017-12-27T09:20:16.801Z,97867.89
2017-12-27T09:22:44.249Z,97859.55
2017-12-27T09:25:12.036Z,97854.16
2017-12-27T09:27:40.297Z,97854.08
2017-12-27T09:30:07.784Z,97846.27
2017-12-27T09:32:35.245Z,97844.36
2017-12-27T09:35:02.881Z,97845.39
2017-12-27T09:37:30.334Z,97842.14
2017-12-27T09:39:57.807Z,97839.13
2017-12-27T09:42:25.308Z,97830.44
2017-12-27T09:44:52.824Z,97830.13
2017-12-27T09:47:20.268Z,97826.78
2017-12-27T09:49:47.778Z,97816.56
2017-12-27T09:52:15.208Z,97815.84
2017-12-27T09:54:42.746Z,97808.00
2017-12-27T09:57:10.447Z,97805.64
2017-12-27T09:59:38.540Z,97803.08
2017-12-27T10:02:06.020Z,97793.36
2017-12-27T10:04:33.799Z,97794.27
2017-12-27T10:07:01.294Z,97794.58
2017-12-27T10:09:28.826Z,97780.20
2017-12-27T10:11:56.904Z,97777.84
2017-12-27T10:14:24.585Z,97775.84
2017-12-27T10:16:52.088Z,97769.53
2017-12-27T10:19:19.676Z,97768.14
2017-12-27T10:21:47.127Z,97758.44
2017-12-27T10:24:14.616Z,97754.64
2017-12-27T10:26:42.073Z,97756.80
2017-12-27T10:29:09.550Z,97741.34
2017-12-27T10:31:37.055Z,97730.28
2017-12-27T10:34:04.550Z,97725.23
2017-12-27T10:36:32.044Z,97726.30
2017-12-27T10:38:59.539Z,97714.47
2017-12-27T10:41:27.086Z,97700.89
2017-12-27T10:43:54.558Z,97694.98
2017-12-27T10:46:22.183Z,97684.66
2017-12-27T10:48:50.002Z,97673.05
2017-12-27T10:51:17.476Z,97675.59
2017-12-27T10:53:44.946Z,97675.98
2017-12-27T10:56:13.393Z,97670.92
2017-12-27T10:58:40.849Z,97669.77
2017-12-27T11:01:08.294Z,97665.91
2017-12-27T11:03:36.209Z,97664.62
2017-12-27T11:06:03.669Z,97658.52
2017-12-27T11:08:31.167Z,97658.08
2017-12-27T11:10:59.423Z,97650.39
2017-12-27T11:13:27.760Z,97643.59
2017-12-27T11:15:55.216Z,97636.62
2017-12-27T11:18:22.740Z,97636.02
2017-12-27T11:20:51.446Z,97635.36
2017-12-27T11:23:18.914Z,97625.95
2017-12-27T11:25:46.679Z,97621.13
2017-12-27T11:28:14.171Z,97615.28
2017-12-27T11:30:41.668Z,97606.55
2017-12-27T11:33:09.485Z,97602.22
2017-12-27T11:35:37.025Z,97611.45
2017-12-27T11:38:04.467Z,97613.70
2017-12-27T11:40:32.850Z,97606.61
2017-12-27T11:43:00.388Z,97596.23
2017-12-27T11:45:27.843Z,97588.67
2017-12-27T11:47:55.693Z,97591.69
2017-12-27T11:50:23.184Z,97578.38
2017-12-27T11:52:50.643Z,97570.28
2017-12-27T11:55:18.098Z,97570.61
2017-12-27T11:57:45.570Z,97577.28
2017-12-27T12:00:13.089Z,97571.50
2017-12-27T12:02:40.511Z,97565.15
2017-12-27T12:05:07.936Z,97569.34
2017-12-27T12:07:35.453Z,97562.80
2017-12-27T12:10:02.915Z,97566.02
2017-12-27T12:12:30.640Z,97564.44
2017-12-27T12:14:58.117Z,97561.13
2017-12-27T12:17:25.608Z,97560.57
2017-12-27T12:19:54.307Z,97552.10
2017-12-27T12:22:21.855Z,97544.41
2017-12-27T12:24:49.325Z,97540.83
2017-12-27T12:27:16.799Z,97524.40
2017-12-27T12:29:44.251Z,97522.38
2017-12-27T12:32:11.710Z,97521.97
2017-12-27T12:34:39.168Z,97512.77
2017-12-27T12:37:06.689Z,97500.48
2017-12-27T12:39:34.117Z,97487.77
2017-12-27T12:42:01.537Z,97483.53
2017-12-27T12:44:28.976Z,97484.13
2017-12-27T12:46:56.463Z,97480.33
2017-12-27T12:49:23.923Z,97473.95
2017-12-27T12:51:51.362Z,97465.57
2017-12-27T12:54:18.856Z,97456.22
2017-12-27T12:56:47.432Z,97450.48
2017-12-27T12:59:14.904Z,97449.00
2017-12-27T13:01:43.555Z,97450.69
2017-12-27T13:04:11.043Z,97449.00
2017-12-27T13:06:38.539Z,97455.85
2017-12-27T13:09:05.953Z,97446.97
2017-12-27T13:11:33.449Z,97453.63
2017-12-27T13:14:00.961Z,97442.97
2017-12-27T13:16:28.456Z,97436.30
2017-12-27T13:18:55.924Z,97435.97
2017-12-27T13:21:23.380Z,97423.13
2017-12-27T13:23:50.885Z,97406.35
2017-12-27T13:26:18.344Z,97404.10
2017-12-27T13:28:45.810Z,97401.23
2017-12-27T13:31:13.306Z,97406.52
2017-12-27T13:33:40.793Z,97408.17
2017-12-27T13:36:08.253Z,97409.50
2017-12-27T13:38:35.744Z,97417.20
2017-12-27T13:41:03.801Z,97417.87
2017-12-27T13:43:31.270Z,97423.09
2017-12-27T13:45:59.197Z,97421.27
2017-12-27T13:48:26.633Z,97420.65
2017-12-27T13:50:54.131Z,97428.38
2017-12-27T13:53:21.579Z,97442.67
2017-12-27T13:55:49.132Z,97452.63
2017-12-27T13:58:16.641Z,97451.53
2017-12-27T14:00:44.703Z,97463.52
2017-12-27T14:03:12.163Z,97463.27
2017-12-27T14:05:40.118Z,97461.72
2017-12-27T14:08:08.566Z,97458.03
2017-12-27T14:10:36.040Z,97453.16
2017-12-27T14:13:03.575Z,97456.63
2017-12-27T14:15:36.172Z,97475.28
2017-12-27T14:18:03.796Z,97469.87
2017-12-27T14:20:31.236Z,97469.22
2017-12-27T14:22:58.689Z,97467.78
2017-12-27T14:25:26.168Z,97468.34
2017-12-27T14:27:53.666Z,97467.26
2017-12-27T14:30:21.131Z,97470.95
2017-12-27T14:32:48.675Z,97464.13
2017-12-27T14:35:16.132Z,97467.16
2017-12-27T14:37:43.651Z,97464.52
2017-12-27T14:40:11.131Z,97464.06
2017-12-27T14:42:38.620Z,97461.42
2017-12-27T14:45:06.107Z,97454.76
2017-12-27T14:47:33.544Z,97447.63
2017-12-27T14:50:01.005Z,97429.52
2017-12-27T14:52:28.741Z,97436.97
2017-12-27T14:54:56.189Z,97432.23
2017-12-27T14:57:23.687Z,97432.00
2017-12-27T14:59:51.175Z,97445.48
2017-12-27T15:02:18.788Z,97445.48
2017-12-27T15:04:46.301Z,97431.69
2017-12-27T15:07:13.851Z,97444.36
2017-12-27T15:09:41.375Z,97434.70
2017-12-27T15:12:08.868Z,97444.14
2017-12-27T15:14:41.278Z,97441.17
2017-12-27T15:17:09.144Z,97434.17
2017-12-27T15:19:36.627Z,97429.30
2017-12-27T15:22:04.136Z,97437.09
2017-12-27T15:24:31.699Z,97444.84
2017-12-27T15:27:00.048Z,97441.44
2017-12-27T15:29:28.488Z,97447.48
2017-12-27T15:31:55.982Z,97448.80
2017-12-27T15:34:23.750Z,97442.64
2017-12-27T15:36:51.220Z,97438.05
2017-12-27T15:39:18.780Z,97435.92
2017-12-27T15:41:46.232Z,97419.77
2017-12-27T15:44:20.112Z,97418.81
2017-12-27T15:46:47.667Z,97411.53
2017-12-27T15:49:16.355Z,97417.63
2017-12-27T15:51:44.776Z,97419.11
2017-12-27T15:54:12.213Z,97413.02
2017-12-27T15:56:39.663Z,97420.63
2017-12-27T15:59:07.079Z,97421.72
2017-12-27T16:01:34.620Z,97423.30
2017-12-27T16:04:02.180Z,97428.91
2017-12-27T16:06:29.956Z,97434.34
2017-12-27T16:08:57.630Z,97433.39
2017-12-27T16:11:26.212Z,97437.91
2017-12-27T16:13:54.797Z,97438.30
2017-12-27T16:16:22.312Z,97439.33
2017-12-27T16:18:49.851Z,97435.60
2017-12-27T16:21:17.377Z,97434.31
2017-12-27T16:23:44.814Z,97435.96
2017-12-27T16:26:12.289Z,97437.52
2017-12-27T16:28:40.580Z,97434.48
2017-12-27T16:31:08.059Z,97437.44
2017-12-27T16:33:35.635Z,97440.45
2017-12-27T16:36:04.163Z,97441.77
2017-12-27T16:38:31.658Z,97437.18
2017-12-27T16:40:59.969Z,97431.22
2017-12-27T16:43:27.484Z,97431.84
2017-12-27T16:45:54.942Z,97442.22
2017-12-27T16:48:22.447Z,97440.19
2017-12-27T16:50:50.129Z,97447.27
2017-12-27T16:53:18.537Z,97449.58
2017-12-27T16:55:46.050Z,97450.80
2017-12-27T16:58:13.532Z,97457.81
2017-12-27T17:00:41.023Z,97453.86
2017-12-27T17:03:09.509Z,97459.30
2017-12-27T17:05:36.991Z,97457.52
2017-12-27T17:08:05.187Z,97458.73
2017-12-27T17:10:32.698Z,97455.63
2017-12-27T17:13:00.156Z,97458.30
2017-12-27T17:15:27.647Z,97454.97
2017-12-27T17:17:55.080Z,97459.75
2017-12-27T17:20:22.525Z,97455.66
2017-12-27T17:22:49.988Z,97459.19
2017-12-27T17:25:17.649Z,97463.67
2017-12-27T17:27:45.151Z,97457.41
2017-12-27T17:30:12.659Z,97463.53
2017-12-27T17:32:40.121Z,97462.02
2017-12-27T17:35:07.568Z,97454.80
2017-12-27T17:37:35.019Z,97464.91
2017-12-27T17:40:02.468Z,97460.48
2017-12-27T17:42:29.940Z,97459.17
2017-12-27T17:44:57.404Z,97462.98
2017-12-27T17:47:24.885Z,97467.95
2017-12-27T17:49:52.382Z,97470.83
2017-12-27T17:52:19.841Z,97470.69
2017-12-27T17:54:47.316Z,97467.78
2017-12-27T17:57:14.902Z,97460.89
2017-12-27T17:59:42.449Z,97463.13
2017-12-27T18:02:10.180Z,97465.02
2017-12-27T18:04:38.749Z,97463.56
2017-12-27T18:07:06.203Z,97459.94
2017-12-27T18:09:34.633Z,97458.19
2017-12-27T18:12:02.847Z,97467.41
2017-12-27T18:14:30.325Z,97470.95
2017-12-27T18:16:57.772Z,97474.25
2017-12-27T18:19:25.232Z,97477.02
2017-12-27T18:21:52.711Z,97486.11
2017-12-27T18:24:20.261Z,97486.04
2017-12-27T18:26:47.762Z,97494.89
2017-12-27T18:29:15.213Z,97495.42
2017-12-27T18:31:42.743Z,97496.65
2017-12-27T18:34:10.187Z,97498.36
2017-12-27T18:36:37.628Z,97507.59
2017-12-27T18:39:05.150Z,97501.85
2017-12-27T18:41:32.629Z,97509.00
2017-12-27T18:44:00.351Z,97513.55
2017-12-27T18:46:27.829Z,97517.89
2017-12-27T18:48:55.268Z,97514.10
2017-12-27T18:51:22.775Z,97520.13
2017-12-27T18:53:50.286Z,97521.69
2017-12-27T18:56:17.741Z,97528.74
2017-12-27T18:58:45.277Z,97526.63
2017-12-27T19:01:12.709Z,97523.56
2017-12-27T19:03:40.421Z,97525.30
2017-12-27T19:06:07.888Z,97539.11
2017-12-27T19:08:35.323Z,97536.84
2017-12-27T19:11:02.803Z,97532.86
2017-12-27T19:13:30.275Z,97534.02
2017-12-27T19:15:57.722Z,97543.58
2017-12-27T19:18:25.204Z,97543.83
2017-12-27T19:20:52.669Z,97544.45
2017-12-27T19:23:20.191Z,97550.41
2017-12-27T19:25:47.669Z,97546.83
2017-12-27T19:28:15.104Z,97551.34
2017-12-27T19:30:42.555Z,97551.94
2017-12-27T19:33:10.080Z,97543.04
2017-12-27T19:35:37.511Z,97535.22
2017-12-27T19:38:06.158Z,97537.17
2017-12-27T19:40:33.605Z,97534.73
2017-12-27T19:43:01.066Z,97544.20
2017-12-27T19:45:28.543Z,97538.02
2017-12-27T19:47:55.998Z,97545.16
2017-12-27T19:50:23.495Z,97542.30
2017-12-27T19:52:50.963Z,97537.94
2017-12-27T19:55:18.444Z,97541.98
2017-12-27T19:57:45.904Z,97549.56
2017-12-27T20:00:13.366Z,97542.06
2017-12-27T20:02:40.862Z,97550.62
2017-12-27T20:05:08.297Z,97542.56
2017-12-27T20:07:35.819Z,97539.84
2017-12-27T20:10:03.307Z,97538.13
2017-12-27T20:12:30.812Z,97537.38
2017-12-27T20:14:58.256Z,97529.70
2017-12-27T20:17:25.799Z,97534.11
2017-12-27T20:19:53.281Z,97538.84
2017-12-27T20:22:20.724Z,97539.46
2017-12-27T20:24:53.156Z,97536.55
2017-12-27T20:27:20.673Z,97536.08
2017-12-27T20:29:48.214Z,97531.30
2017-12-27T20:32:15.789Z,97535.64
2017-12-27T20:34:43.250Z,97530.38
2017-12-27T20:37:10.710Z,97527.66
2017-12-27T20:39:38.157Z,97528.75
2017-12-27T20:42:05.693Z,97534.77
2017-12-27T20:44:33.177Z,97530.45
2017-12-27T20:47:01.669Z,97530.75
2017-12-27T20:49:31.394Z,97531.54
2017-12-27T20:51:58.965Z,97527.98
2017-12-27T20:54:26.482Z,97527.36
2017-12-27T20:56:53.950Z,97523.73
2017-12-27T20:59:21.440Z,97531.87
2017-12-27T21:01:48.965Z,97520.47
2017-12-27T21:04:16.464Z,97519.39
2017-12-27T21:06:43.960Z,97521.66
2017-12-27T21:09:11.457Z,97518.86
2017-12-27T21:11:38.958Z,97523.41
2017-12-27T21:14:06.558Z,97523.96
2017-12-27T21:16:34.004Z,97522.77
2017-12-27T21:19:01.469Z,97522.16
2017-12-27T21:21:28.915Z,97527.52
2017-12-27T21:23:56.417Z,97528.08
2017-12-27T21:26:23.897Z,97520.03
2017-12-27T21:28:51.361Z,97519.02
2017-12-27T21:31:18.843Z,97521.27
2017-12-27T21:33:46.319Z,97516.84
2017-12-27T21:36:13.772Z,97511.58
2017-12-27T21:38:41.270Z,97505.32
2017-12-27T21:41:08.776Z,97517.89
2017-12-27T21:43:36.828Z,97522.92
2017-12-27T21:46:04.280Z,97531.98
2017-12-27T21:48:37.321Z,97532.97
2017-12-27T21:51:04.814Z,97531.17
2017-12-27T21:53:32.262Z,97529.66
2017-12-27T21:55:59.824Z,97527.14
2017-12-27T21:58:32.860Z,97524.74
2017-12-27T22:01:06.008Z,97530.64
2017-12-27T22:03:33.575Z,97532.12
2017-12-27T22:06:01.130Z,97527.45
2017-12-27T22:08:28.605Z,97530.47
2017-12-27T22:10:56.080Z,97534.86
2017-12-27T22:13:23.514Z,97538.13
2017-12-27T22:15:50.961Z,97533.69
2017-12-27T22:18:18.384Z,97536.17
2017-12-27T22:20:51.320Z,97540.87
2017-12-27T22:23:18.775Z,97544.29
2017-12-27T22:25:46.260Z,97541.42
2017-12-27T22:28:13.794Z,97538.72
2017-12-27T22:30:41.301Z,97542.06
2017-12-27T22:33:08.772Z,97541.27
2017-12-27T22:35:36.232Z,97540.19
2017-12-27T22:38:03.667Z,97530.38
2017-12-27T22:40:31.266Z,97536.47
2017-12-27T22:42:58.765Z,97538.95
2017-12-27T22:45:26.239Z,97538.72
2017-12-27T22:47:53.689Z,97531.20
2017-12-27T22:50:21.186Z,97535.23
2017-12-27T22:52:48.650Z,97533.52
2017-12-27T22:55:16.129Z,97531.20
2017-12-27T22:57:45.061Z,97528.73
2017-12-27T23:00:12.523Z,97524.47
2017-12-27T23:02:39.980Z,97515.42
2017-12-27T23:05:07.493Z,97514.58
2017-12-27T23:07:38.025Z,97515.03
2017-12-27T23:10:05.985Z,97518.85
2017-12-27T23:12:33.468Z,97517.38
2017-12-27T23:15:00.966Z,97513.95
2017-12-27T23:17:28.649Z,97513.70
2017-12-27T23:19:56.118Z,97512.78
2017-12-27T23:22:23.624Z,97508.27
2017-12-27T23:25:00.837Z,97513.09
2017-12-27T23:27:28.298Z,97513.53
2017-12-27T23:29:55.765Z,97513.75
2017-12-27T23:32:23.238Z,97509.08
2017-12-27T23:34:50.665Z,97511.03
2017-12-27T23:37:18.107Z,97507.75
2017-12-27T23:39:45.565Z,97505.83
2017-12-27T23:42:13.045Z,97508.47
2017-12-27T23:44:40.517Z,97506.36
2017-12-27T23:47:07.954Z,97505.27
2017-12-27T23:49:35.389Z,97505.74
2017-12-27T23:52:02.873Z,97501.39
2017-12-27T23:54:30.355Z,97504.66
2017-12-27T23:56:57.775Z,97505.19
2017-12-27T23:59:25.250Z,97509.30
